sensor_id;sensor_type;location;lat;lon;timestamp;P1;durP1;ratioP1;P2;durP2;ratioP2
20008;SDS011;10165;42.662;23.260;2024-01-15T00:00:16;20.03;;;9.93;;
20008;SDS011;10165;42.662;23.260;2024-01-15T00:02:43;13.43;;;7.77;;
20008;SDS011;10165;42.662;23.260;2024-01-15T00:05:10;11.87;;;6.87;;
20008;SDS011;10165;42.662;23.260;2024-01-15T00:07:37;14.23;;;9.00;;
20008;SDS011;10165;42.662;23.260;2024-01-15T00:10:04;14.77;;;7.23;;
20008;SDS011;10165;42.662;23.260;2024-01-15T00:12:31;15.73;;;7.13;;
20008;SDS011;10165;42.662;23.260;2024-01-15T00:14:58;21.40;;;7.47;;
20008;SDS011;10165;42.662;23.260;2024-01-15T00:17:24;9.90;;;7.10;;
20008;SDS011;10165;42.662;23.260;2024-01-15T00:19:51;8.53;;;5.33;;
20008;SDS011;10165;42.662;23.260;2024-01-15T00:22:19;14.07;;;7.53;;
20008;SDS011;10165;42.662;23.260;2024-01-15T00:24:46;11.90;;;6.83;;
20008;SDS011;10165;42.662;23.260;2024-01-15T00:27:13;17.73;;;8.40;;
20008;SDS011;10165;42.662;23.260;2024-01-15T00:29:39;15.80;;;7.40;;
20008;SDS011;10165;42.662;23.260;2024-01-15T00:32:06;14.83;;;7.90;;
20008;SDS011;10165;42.662;23.260;2024-01-15T00:34:33;13.57;;;6.90;;
20008;SDS011;10165;42.662;23.260;2024-01-15T00:37:00;16.77;;;7.77;;
20008;SDS011;10165;42.662;23.260;2024-01-15T00:39:27;14.40;;;6.73;;
20008;SDS011;10165;42.662;23.260;2024-01-15T00:41:53;17.27;;;8.43;;
20008;SDS011;10165;42.662;23.260;2024-01-15T00:44:20;16.30;;;8.13;;
20008;SDS011;10165;42.662;23.260;2024-01-15T00:46:47;18.20;;;10.03;;
20008;SDS011;10165;42.662;23.260;2024-01-15T00:49:14;13.50;;;7.87;;
20008;SDS011;10165;42.662;23.260;2024-01-15T00:51:41;15.93;;;8.47;;
20008;SDS011;10165;42.662;23.260;2024-01-15T00:54:08;13.10;;;7.37;;
20008;SDS011;10165;42.662;23.260;2024-01-15T00:56:35;12.17;;;5.40;;
20008;SDS011;10165;42.662;23.260;2024-01-15T00:59:03;10.70;;;6.87;;
20008;SDS011;10165;42.662;23.260;2024-01-15T01:01:29;14.77;;;6.77;;
20008;SDS011;10165;42.662;23.260;2024-01-15T01:03:56;17.47;;;7.43;;
20008;SDS011;10165;42.662;23.260;2024-01-15T01:06:23;12.27;;;6.30;;
20008;SDS011;10165;42.662;23.260;2024-01-15T01:08:51;14.93;;;6.07;;
20008;SDS011;10165;42.662;23.260;2024-01-15T01:11:18;17.13;;;8.37;;
20008;SDS011;10165;42.662;23.260;2024-01-15T01:13:45;15.90;;;6.87;;
20008;SDS011;10165;42.662;23.260;2024-01-15T01:16:12;13.00;;;7.00;;
20008;SDS011;10165;42.662;23.260;2024-01-15T01:18:38;20.17;;;5.90;;
20008;SDS011;10165;42.662;23.260;2024-01-15T01:21:06;11.90;;;6.40;;
20008;SDS011;10165;42.662;23.260;2024-01-15T01:23:32;14.50;;;6.90;;
20008;SDS011;10165;42.662;23.260;2024-01-15T01:25:59;8.53;;;5.53;;
20008;SDS011;10165;42.662;23.260;2024-01-15T01:28:26;13.40;;;6.90;;
20008;SDS011;10165;42.662;23.260;2024-01-15T01:30:53;12.93;;;6.23;;
20008;SDS011;10165;42.662;23.260;2024-01-15T01:33:20;13.43;;;6.77;;
20008;SDS011;10165;42.662;23.260;2024-01-15T01:35:47;12.17;;;6.37;;
20008;SDS011;10165;42.662;23.260;2024-01-15T01:38:14;11.13;;;5.27;;
20008;SDS011;10165;42.662;23.260;2024-01-15T01:40:40;9.83;;;5.00;;
20008;SDS011;10165;42.662;23.260;2024-01-15T01:43:08;9.03;;;5.50;;
20008;SDS011;10165;42.662;23.260;2024-01-15T01:45:36;10.30;;;5.40;;
20008;SDS011;10165;42.662;23.260;2024-01-15T01:48:03;6.47;;;4.83;;
20008;SDS011;10165;42.662;23.260;2024-01-15T01:50:30;7.83;;;6.30;;
20008;SDS011;10165;42.662;23.260;2024-01-15T01:52:58;9.37;;;5.00;;
20008;SDS011;10165;42.662;23.260;2024-01-15T01:55:27;11.10;;;4.13;;
20008;SDS011;10165;42.662;23.260;2024-01-15T01:57:55;8.57;;;5.30;;
20008;SDS011;10165;42.662;23.260;2024-01-15T02:00:23;13.03;;;5.20;;
20008;SDS011;10165;42.662;23.260;2024-01-15T02:02:50;12.57;;;6.07;;
20008;SDS011;10165;42.662;23.260;2024-01-15T02:05:20;14.00;;;5.73;;
20008;SDS011;10165;42.662;23.260;2024-01-15T02:07:48;5.30;;;4.80;;
20008;SDS011;10165;42.662;23.260;2024-01-15T02:10:15;11.43;;;5.57;;
20008;SDS011;10165;42.662;23.260;2024-01-15T02:12:42;12.40;;;6.47;;
20008;SDS011;10165;42.662;23.260;2024-01-15T02:15:10;6.67;;;4.30;;
20008;SDS011;10165;42.662;23.260;2024-01-15T02:17:56;5.67;;;4.40;;
20008;SDS011;10165;42.662;23.260;2024-01-15T02:20:41;6.37;;;3.40;;
20008;SDS011;10165;42.662;23.260;2024-01-15T02:23:09;13.60;;;6.47;;
20008;SDS011;10165;42.662;23.260;2024-01-15T02:25:37;7.57;;;5.87;;
20008;SDS011;10165;42.662;23.260;2024-01-15T02:28:09;8.10;;;5.10;;
20008;SDS011;10165;42.662;23.260;2024-01-15T02:30:37;9.20;;;4.73;;
20008;SDS011;10165;42.662;23.260;2024-01-15T02:33:06;7.47;;;4.93;;
20008;SDS011;10165;42.662;23.260;2024-01-15T02:35:34;6.80;;;4.47;;
20008;SDS011;10165;42.662;23.260;2024-01-15T02:38:04;10.03;;;5.03;;
20008;SDS011;10165;42.662;23.260;2024-01-15T02:40:32;8.73;;;3.57;;
20008;SDS011;10165;42.662;23.260;2024-01-15T02:43:00;8.13;;;5.27;;
20008;SDS011;10165;42.662;23.260;2024-01-15T02:45:26;9.80;;;4.77;;
20008;SDS011;10165;42.662;23.260;2024-01-15T02:47:53;11.43;;;6.70;;
20008;SDS011;10165;42.662;23.260;2024-01-15T02:50:20;9.10;;;5.17;;
20008;SDS011;10165;42.662;23.260;2024-01-15T02:52:47;11.37;;;5.87;;
20008;SDS011;10165;42.662;23.260;2024-01-15T02:55:14;11.40;;;5.97;;
20008;SDS011;10165;42.662;23.260;2024-01-15T02:57:40;11.87;;;7.17;;
20008;SDS011;10165;42.662;23.260;2024-01-15T03:00:07;9.03;;;5.83;;
20008;SDS011;10165;42.662;23.260;2024-01-15T03:02:38;6.77;;;4.97;;
20008;SDS011;10165;42.662;23.260;2024-01-15T03:05:09;11.80;;;5.80;;
20008;SDS011;10165;42.662;23.260;2024-01-15T03:07:36;8.90;;;3.93;;
20008;SDS011;10165;42.662;23.260;2024-01-15T03:10:04;9.33;;;5.23;;
20008;SDS011;10165;42.662;23.260;2024-01-15T03:12:32;7.77;;;4.83;;
20008;SDS011;10165;42.662;23.260;2024-01-15T03:14:58;8.57;;;5.83;;
20008;SDS011;10165;42.662;23.260;2024-01-15T03:17:25;5.80;;;3.80;;
20008;SDS011;10165;42.662;23.260;2024-01-15T03:19:52;6.80;;;4.13;;
20008;SDS011;10165;42.662;23.260;2024-01-15T03:22:19;7.13;;;5.97;;
20008;SDS011;10165;42.662;23.260;2024-01-15T03:24:48;9.37;;;5.73;;
20008;SDS011;10165;42.662;23.260;2024-01-15T03:27:15;10.70;;;4.80;;
20008;SDS011;10165;42.662;23.260;2024-01-15T03:29:42;8.37;;;4.20;;
20008;SDS011;10165;42.662;23.260;2024-01-15T03:32:09;7.73;;;4.93;;
20008;SDS011;10165;42.662;23.260;2024-01-15T03:34:36;11.13;;;6.00;;
20008;SDS011;10165;42.662;23.260;2024-01-15T03:37:03;16.83;;;5.03;;
20008;SDS011;10165;42.662;23.260;2024-01-15T03:39:30;8.37;;;4.90;;
20008;SDS011;10165;42.662;23.260;2024-01-15T03:41:57;11.73;;;6.20;;
20008;SDS011;10165;42.662;23.260;2024-01-15T03:44:24;13.07;;;5.23;;
20008;SDS011;10165;42.662;23.260;2024-01-15T03:46:51;14.10;;;5.67;;
20008;SDS011;10165;42.662;23.260;2024-01-15T03:49:17;9.83;;;4.57;;
20008;SDS011;10165;42.662;23.260;2024-01-15T03:51:44;7.20;;;4.60;;
20008;SDS011;10165;42.662;23.260;2024-01-15T03:54:11;14.33;;;7.20;;
20008;SDS011;10165;42.662;23.260;2024-01-15T03:56:38;13.80;;;6.30;;
20008;SDS011;10165;42.662;23.260;2024-01-15T03:59:05;11.10;;;5.20;;
20008;SDS011;10165;42.662;23.260;2024-01-15T04:01:32;10.93;;;5.20;;
20008;SDS011;10165;42.662;23.260;2024-01-15T04:03:58;13.63;;;6.10;;
20008;SDS011;10165;42.662;23.260;2024-01-15T04:06:25;10.13;;;5.80;;
20008;SDS011;10165;42.662;23.260;2024-01-15T04:08:52;10.60;;;5.83;;
20008;SDS011;10165;42.662;23.260;2024-01-15T04:11:19;16.77;;;6.53;;
20008;SDS011;10165;42.662;23.260;2024-01-15T04:13:46;9.57;;;5.73;;
20008;SDS011;10165;42.662;23.260;2024-01-15T04:16:12;7.97;;;5.53;;
20008;SDS011;10165;42.662;23.260;2024-01-15T04:18:39;9.83;;;5.93;;
20008;SDS011;10165;42.662;23.260;2024-01-15T04:21:06;10.17;;;6.27;;
20008;SDS011;10165;42.662;23.260;2024-01-15T04:23:33;16.37;;;7.83;;
20008;SDS011;10165;42.662;23.260;2024-01-15T04:26:00;10.13;;;6.73;;
20008;SDS011;10165;42.662;23.260;2024-01-15T04:28:26;12.53;;;6.70;;
20008;SDS011;10165;42.662;23.260;2024-01-15T04:30:53;13.30;;;8.33;;
20008;SDS011;10165;42.662;23.260;2024-01-15T04:33:20;17.93;;;7.70;;
20008;SDS011;10165;42.662;23.260;2024-01-15T04:35:47;17.10;;;7.73;;
20008;SDS011;10165;42.662;23.260;2024-01-15T04:38:14;18.30;;;9.33;;
20008;SDS011;10165;42.662;23.260;2024-01-15T04:40:40;16.23;;;9.63;;
20008;SDS011;10165;42.662;23.260;2024-01-15T04:43:07;19.93;;;8.07;;
20008;SDS011;10165;42.662;23.260;2024-01-15T04:45:34;22.83;;;10.20;;
20008;SDS011;10165;42.662;23.260;2024-01-15T04:48:01;32.00;;;15.57;;
20008;SDS011;10165;42.662;23.260;2024-01-15T04:50:28;19.13;;;10.87;;
20008;SDS011;10165;42.662;23.260;2024-01-15T04:52:55;16.23;;;8.27;;
20008;SDS011;10165;42.662;23.260;2024-01-15T04:55:21;14.03;;;6.93;;
20008;SDS011;10165;42.662;23.260;2024-01-15T04:57:48;11.93;;;7.27;;
20008;SDS011;10165;42.662;23.260;2024-01-15T05:00:15;7.57;;;4.87;;
20008;SDS011;10165;42.662;23.260;2024-01-15T05:02:42;10.77;;;7.27;;
20008;SDS011;10165;42.662;23.260;2024-01-15T05:05:09;13.67;;;8.67;;
20008;SDS011;10165;42.662;23.260;2024-01-15T05:07:35;15.07;;;6.27;;
20008;SDS011;10165;42.662;23.260;2024-01-15T05:10:02;10.87;;;4.37;;
20008;SDS011;10165;42.662;23.260;2024-01-15T05:12:30;7.97;;;5.27;;
20008;SDS011;10165;42.662;23.260;2024-01-15T05:14:56;7.67;;;4.77;;
20008;SDS011;10165;42.662;23.260;2024-01-15T05:17:23;12.47;;;6.97;;
20008;SDS011;10165;42.662;23.260;2024-01-15T05:19:50;14.90;;;7.77;;
20008;SDS011;10165;42.662;23.260;2024-01-15T05:22:17;34.07;;;15.17;;
20008;SDS011;10165;42.662;23.260;2024-01-15T05:24:43;28.50;;;14.90;;
20008;SDS011;10165;42.662;23.260;2024-01-15T05:27:10;22.17;;;12.47;;
20008;SDS011;10165;42.662;23.260;2024-01-15T05:29:37;31.70;;;14.33;;
20008;SDS011;10165;42.662;23.260;2024-01-15T05:32:04;23.97;;;11.47;;
20008;SDS011;10165;42.662;23.260;2024-01-15T05:34:30;20.03;;;10.83;;
20008;SDS011;10165;42.662;23.260;2024-01-15T05:36:57;21.43;;;11.90;;
20008;SDS011;10165;42.662;23.260;2024-01-15T05:39:24;26.83;;;11.03;;
20008;SDS011;10165;42.662;23.260;2024-01-15T05:41:51;18.30;;;11.20;;
20008;SDS011;10165;42.662;23.260;2024-01-15T05:44:18;22.03;;;11.63;;
20008;SDS011;10165;42.662;23.260;2024-01-15T05:46:44;33.50;;;13.43;;
20008;SDS011;10165;42.662;23.260;2024-01-15T05:49:11;14.20;;;9.60;;
20008;SDS011;10165;42.662;23.260;2024-01-15T05:51:38;23.43;;;9.13;;
20008;SDS011;10165;42.662;23.260;2024-01-15T05:54:05;28.17;;;13.87;;
20008;SDS011;10165;42.662;23.260;2024-01-15T05:56:32;27.27;;;11.77;;
20008;SDS011;10165;42.662;23.260;2024-01-15T05:58:59;19.23;;;12.20;;
20008;SDS011;10165;42.662;23.260;2024-01-15T06:01:25;30.67;;;10.83;;
20008;SDS011;10165;42.662;23.260;2024-01-15T06:03:52;25.13;;;12.43;;
20008;SDS011;10165;42.662;23.260;2024-01-15T06:06:19;18.70;;;10.87;;
20008;SDS011;10165;42.662;23.260;2024-01-15T06:08:46;19.13;;;10.53;;
20008;SDS011;10165;42.662;23.260;2024-01-15T06:11:13;16.50;;;9.67;;
20008;SDS011;10165;42.662;23.260;2024-01-15T06:13:39;15.77;;;8.30;;
20008;SDS011;10165;42.662;23.260;2024-01-15T06:16:15;20.93;;;9.13;;
20008;SDS011;10165;42.662;23.260;2024-01-15T06:18:43;12.03;;;7.63;;
20008;SDS011;10165;42.662;23.260;2024-01-15T06:21:10;17.93;;;7.17;;
20008;SDS011;10165;42.662;23.260;2024-01-15T06:23:39;19.03;;;9.80;;
20008;SDS011;10165;42.662;23.260;2024-01-15T06:26:06;15.07;;;8.97;;
20008;SDS011;10165;42.662;23.260;2024-01-15T06:28:33;15.60;;;7.63;;
20008;SDS011;10165;42.662;23.260;2024-01-15T06:31:00;17.10;;;7.90;;
20008;SDS011;10165;42.662;23.260;2024-01-15T06:33:26;26.50;;;12.50;;
20008;SDS011;10165;42.662;23.260;2024-01-15T06:35:53;20.63;;;9.87;;
20008;SDS011;10165;42.662;23.260;2024-01-15T06:38:20;14.40;;;9.03;;
20008;SDS011;10165;42.662;23.260;2024-01-15T06:40:47;13.60;;;9.73;;
20008;SDS011;10165;42.662;23.260;2024-01-15T06:43:18;13.63;;;8.83;;
20008;SDS011;10165;42.662;23.260;2024-01-15T06:45:45;25.20;;;10.93;;
20008;SDS011;10165;42.662;23.260;2024-01-15T06:48:12;26.00;;;11.23;;
20008;SDS011;10165;42.662;23.260;2024-01-15T06:50:40;18.40;;;9.43;;
20008;SDS011;10165;42.662;23.260;2024-01-15T06:53:07;12.53;;;8.40;;
20008;SDS011;10165;42.662;23.260;2024-01-15T06:55:34;19.83;;;9.77;;
20008;SDS011;10165;42.662;23.260;2024-01-15T06:58:00;15.23;;;9.20;;
20008;SDS011;10165;42.662;23.260;2024-01-15T07:00:27;15.97;;;8.83;;
20008;SDS011;10165;42.662;23.260;2024-01-15T07:02:54;14.20;;;10.33;;
20008;SDS011;10165;42.662;23.260;2024-01-15T07:05:21;26.27;;;10.17;;
20008;SDS011;10165;42.662;23.260;2024-01-15T07:07:48;20.73;;;11.70;;
20008;SDS011;10165;42.662;23.260;2024-01-15T07:10:15;15.60;;;9.93;;
20008;SDS011;10165;42.662;23.260;2024-01-15T07:12:42;13.53;;;8.60;;
20008;SDS011;10165;42.662;23.260;2024-01-15T07:15:09;19.20;;;9.10;;
20008;SDS011;10165;42.662;23.260;2024-01-15T07:17:36;23.33;;;11.13;;
20008;SDS011;10165;42.662;23.260;2024-01-15T07:20:07;20.03;;;9.53;;
20008;SDS011;10165;42.662;23.260;2024-01-15T07:22:37;16.87;;;8.53;;
20008;SDS011;10165;42.662;23.260;2024-01-15T07:25:04;15.07;;;7.30;;
20008;SDS011;10165;42.662;23.260;2024-01-15T07:27:31;11.70;;;7.20;;
20008;SDS011;10165;42.662;23.260;2024-01-15T07:29:59;20.60;;;10.03;;
20008;SDS011;10165;42.662;23.260;2024-01-15T07:32:28;23.17;;;10.23;;
20008;SDS011;10165;42.662;23.260;2024-01-15T07:34:55;19.30;;;9.43;;
20008;SDS011;10165;42.662;23.260;2024-01-15T07:37:22;25.37;;;14.40;;
20008;SDS011;10165;42.662;23.260;2024-01-15T07:39:49;20.43;;;11.87;;
20008;SDS011;10165;42.662;23.260;2024-01-15T07:42:16;27.87;;;13.03;;
20008;SDS011;10165;42.662;23.260;2024-01-15T07:44:43;21.23;;;12.20;;
20008;SDS011;10165;42.662;23.260;2024-01-15T07:47:11;28.97;;;13.27;;
20008;SDS011;10165;42.662;23.260;2024-01-15T07:49:38;23.97;;;12.20;;
20008;SDS011;10165;42.662;23.260;2024-01-15T07:52:05;21.73;;;11.43;;
20008;SDS011;10165;42.662;23.260;2024-01-15T07:54:32;15.37;;;8.23;;
20008;SDS011;10165;42.662;23.260;2024-01-15T07:57:00;12.93;;;7.53;;
20008;SDS011;10165;42.662;23.260;2024-01-15T07:59:29;18.80;;;9.07;;
20008;SDS011;10165;42.662;23.260;2024-01-15T08:01:56;17.73;;;8.67;;
20008;SDS011;10165;42.662;23.260;2024-01-15T08:04:24;18.57;;;10.63;;
20008;SDS011;10165;42.662;23.260;2024-01-15T08:06:51;24.93;;;13.27;;
20008;SDS011;10165;42.662;23.260;2024-01-15T08:09:18;23.20;;;11.73;;
20008;SDS011;10165;42.662;23.260;2024-01-15T08:11:44;26.47;;;12.77;;
20008;SDS011;10165;42.662;23.260;2024-01-15T08:14:11;27.87;;;14.27;;
20008;SDS011;10165;42.662;23.260;2024-01-15T08:16:39;20.37;;;12.87;;
20008;SDS011;10165;42.662;23.260;2024-01-15T08:19:06;24.30;;;13.37;;
20008;SDS011;10165;42.662;23.260;2024-01-15T08:21:33;18.57;;;11.33;;
20008;SDS011;10165;42.662;23.260;2024-01-15T08:24:01;23.57;;;12.73;;
20008;SDS011;10165;42.662;23.260;2024-01-15T08:26:29;27.00;;;12.87;;
20008;SDS011;10165;42.662;23.260;2024-01-15T08:28:56;22.33;;;10.93;;
20008;SDS011;10165;42.662;23.260;2024-01-15T08:31:23;20.20;;;10.90;;
20008;SDS011;10165;42.662;23.260;2024-01-15T08:33:50;18.17;;;9.90;;
20008;SDS011;10165;42.662;23.260;2024-01-15T08:36:17;12.47;;;8.43;;
20008;SDS011;10165;42.662;23.260;2024-01-15T08:38:44;13.07;;;8.67;;
20008;SDS011;10165;42.662;23.260;2024-01-15T08:41:11;16.17;;;9.97;;
20008;SDS011;10165;42.662;23.260;2024-01-15T08:43:38;18.03;;;10.17;;
20008;SDS011;10165;42.662;23.260;2024-01-15T08:46:06;19.73;;;9.97;;
20008;SDS011;10165;42.662;23.260;2024-01-15T08:48:33;20.73;;;9.50;;
20008;SDS011;10165;42.662;23.260;2024-01-15T08:51:00;17.13;;;8.70;;
20008;SDS011;10165;42.662;23.260;2024-01-15T08:53:27;12.10;;;6.40;;
20008;SDS011;10165;42.662;23.260;2024-01-15T08:55:54;15.07;;;8.57;;
20008;SDS011;10165;42.662;23.260;2024-01-15T08:58:21;16.53;;;9.03;;
20008;SDS011;10165;42.662;23.260;2024-01-15T09:00:49;13.77;;;9.67;;
20008;SDS011;10165;42.662;23.260;2024-01-15T09:03:17;16.17;;;8.90;;
20008;SDS011;10165;42.662;23.260;2024-01-15T09:05:44;20.23;;;10.13;;
20008;SDS011;10165;42.662;23.260;2024-01-15T09:08:11;25.13;;;12.53;;
20008;SDS011;10165;42.662;23.260;2024-01-15T09:10:38;26.70;;;12.33;;
20008;SDS011;10165;42.662;23.260;2024-01-15T09:13:04;24.60;;;13.30;;
20008;SDS011;10165;42.662;23.260;2024-01-15T09:15:31;20.27;;;10.80;;
20008;SDS011;10165;42.662;23.260;2024-01-15T09:17:58;28.47;;;11.00;;
20008;SDS011;10165;42.662;23.260;2024-01-15T09:20:26;17.80;;;10.90;;
20008;SDS011;10165;42.662;23.260;2024-01-15T09:22:53;16.10;;;11.23;;
20008;SDS011;10165;42.662;23.260;2024-01-15T09:25:20;21.17;;;11.40;;
20008;SDS011;10165;42.662;23.260;2024-01-15T09:27:47;27.33;;;12.60;;
20008;SDS011;10165;42.662;23.260;2024-01-15T09:30:14;27.27;;;13.30;;
20008;SDS011;10165;42.662;23.260;2024-01-15T09:32:41;20.53;;;8.67;;
20008;SDS011;10165;42.662;23.260;2024-01-15T09:35:09;14.37;;;10.17;;
20008;SDS011;10165;42.662;23.260;2024-01-15T09:37:36;19.90;;;10.33;;
20008;SDS011;10165;42.662;23.260;2024-01-15T09:40:13;18.30;;;9.57;;
20008;SDS011;10165;42.662;23.260;2024-01-15T09:42:41;17.17;;;9.50;;
20008;SDS011;10165;42.662;23.260;2024-01-15T09:45:09;19.80;;;12.57;;
20008;SDS011;10165;42.662;23.260;2024-01-15T09:47:36;14.30;;;8.87;;
20008;SDS011;10165;42.662;23.260;2024-01-15T09:50:09;15.50;;;8.37;;
20008;SDS011;10165;42.662;23.260;2024-01-15T09:52:36;21.80;;;8.70;;
20008;SDS011;10165;42.662;23.260;2024-01-15T09:55:03;17.53;;;9.80;;
20008;SDS011;10165;42.662;23.260;2024-01-15T09:57:32;19.33;;;10.30;;
20008;SDS011;10165;42.662;23.260;2024-01-15T09:59:59;21.30;;;12.27;;
20008;SDS011;10165;42.662;23.260;2024-01-15T10:02:31;25.23;;;13.07;;
20008;SDS011;10165;42.662;23.260;2024-01-15T10:04:59;15.47;;;9.30;;
20008;SDS011;10165;42.662;23.260;2024-01-15T10:07:26;20.47;;;10.33;;
20008;SDS011;10165;42.662;23.260;2024-01-15T10:09:55;23.07;;;12.83;;
20008;SDS011;10165;42.662;23.260;2024-01-15T10:12:22;14.80;;;8.27;;
20008;SDS011;10165;42.662;23.260;2024-01-15T10:14:50;13.83;;;7.97;;
20008;SDS011;10165;42.662;23.260;2024-01-15T10:17:17;17.40;;;9.63;;
20008;SDS011;10165;42.662;23.260;2024-01-15T10:19:47;12.43;;;7.33;;
20008;SDS011;10165;42.662;23.260;2024-01-15T10:22:16;15.70;;;7.97;;
20008;SDS011;10165;42.662;23.260;2024-01-15T10:24:44;17.60;;;9.87;;
20008;SDS011;10165;42.662;23.260;2024-01-15T10:27:14;17.50;;;10.23;;
20008;SDS011;10165;42.662;23.260;2024-01-15T10:29:41;11.87;;;7.00;;
20008;SDS011;10165;42.662;23.260;2024-01-15T10:32:08;21.83;;;10.00;;
20008;SDS011;10165;42.662;23.260;2024-01-15T10:34:39;32.60;;;13.63;;
20008;SDS011;10165;42.662;23.260;2024-01-15T10:37:08;37.23;;;15.30;;
20008;SDS011;10165;42.662;23.260;2024-01-15T10:39:35;24.93;;;13.87;;
20008;SDS011;10165;42.662;23.260;2024-01-15T10:42:03;26.80;;;14.23;;
20008;SDS011;10165;42.662;23.260;2024-01-15T10:44:30;22.47;;;14.17;;
20008;SDS011;10165;42.662;23.260;2024-01-15T10:46:57;21.63;;;12.37;;
20008;SDS011;10165;42.662;23.260;2024-01-15T10:49:24;30.30;;;15.53;;
20008;SDS011;10165;42.662;23.260;2024-01-15T10:51:59;28.23;;;14.87;;
20008;SDS011;10165;42.662;23.260;2024-01-15T10:54:27;29.20;;;13.47;;
20008;SDS011;10165;42.662;23.260;2024-01-15T10:56:55;22.13;;;12.63;;
20008;SDS011;10165;42.662;23.260;2024-01-15T10:59:23;19.00;;;12.97;;
20008;SDS011;10165;42.662;23.260;2024-01-15T11:01:50;32.30;;;14.63;;
20008;SDS011;10165;42.662;23.260;2024-01-15T11:04:23;23.30;;;11.50;;
20008;SDS011;10165;42.662;23.260;2024-01-15T11:06:53;25.03;;;11.47;;
20008;SDS011;10165;42.662;23.260;2024-01-15T11:09:25;24.70;;;12.80;;
20008;SDS011;10165;42.662;23.260;2024-01-15T11:11:53;24.87;;;14.97;;
20008;SDS011;10165;42.662;23.260;2024-01-15T11:14:40;18.33;;;11.83;;
20008;SDS011;10165;42.662;23.260;2024-01-15T11:17:12;23.90;;;13.17;;
20008;SDS011;10165;42.662;23.260;2024-01-15T11:19:46;22.80;;;12.83;;
20008;SDS011;10165;42.662;23.260;2024-01-15T11:25:03;26.57;;;13.40;;
20008;SDS011;10165;42.662;23.260;2024-01-15T11:27:46;24.10;;;11.30;;
20008;SDS011;10165;42.662;23.260;2024-01-15T11:30:14;24.40;;;13.33;;
20008;SDS011;10165;42.662;23.260;2024-01-15T11:32:41;24.00;;;12.80;;
20008;SDS011;10165;42.662;23.260;2024-01-15T11:35:09;25.90;;;12.90;;
20008;SDS011;10165;42.662;23.260;2024-01-15T11:42:59;26.43;;;13.30;;
20008;SDS011;10165;42.662;23.260;2024-01-15T11:45:26;28.23;;;15.27;;
20008;SDS011;10165;42.662;23.260;2024-01-15T11:48:09;26.47;;;14.03;;
20008;SDS011;10165;42.662;23.260;2024-01-15T11:50:46;17.00;;;12.40;;
20008;SDS011;10165;42.662;23.260;2024-01-15T11:53:40;19.57;;;12.40;;
20008;SDS011;10165;42.662;23.260;2024-01-15T11:56:12;35.60;;;13.03;;
20008;SDS011;10165;42.662;23.260;2024-01-15T11:58:43;24.47;;;13.07;;
20008;SDS011;10165;42.662;23.260;2024-01-15T12:01:10;23.97;;;13.80;;
20008;SDS011;10165;42.662;23.260;2024-01-15T12:03:37;27.27;;;15.07;;
20008;SDS011;10165;42.662;23.260;2024-01-15T12:06:08;29.93;;;14.10;;
20008;SDS011;10165;42.662;23.260;2024-01-15T12:08:36;30.33;;;14.67;;
20008;SDS011;10165;42.662;23.260;2024-01-15T12:11:06;31.13;;;14.90;;
20008;SDS011;10165;42.662;23.260;2024-01-15T12:13:33;29.63;;;15.63;;
20008;SDS011;10165;42.662;23.260;2024-01-15T12:16:01;29.93;;;15.37;;
20008;SDS011;10165;42.662;23.260;2024-01-15T12:18:29;27.37;;;14.13;;
20008;SDS011;10165;42.662;23.260;2024-01-15T12:20:56;26.23;;;14.40;;
20008;SDS011;10165;42.662;23.260;2024-01-15T12:23:24;31.67;;;14.47;;
20008;SDS011;10165;42.662;23.260;2024-01-15T12:25:51;49.23;;;23.43;;
20008;SDS011;10165;42.662;23.260;2024-01-15T12:28:18;28.33;;;15.87;;
20008;SDS011;10165;42.662;23.260;2024-01-15T12:30:46;31.90;;;16.13;;
20008;SDS011;10165;42.662;23.260;2024-01-15T12:33:17;25.40;;;12.23;;
20008;SDS011;10165;42.662;23.260;2024-01-15T12:35:45;29.03;;;13.80;;
20008;SDS011;10165;42.662;23.260;2024-01-15T12:38:11;29.40;;;12.77;;
20008;SDS011;10165;42.662;23.260;2024-01-15T12:40:38;23.03;;;12.13;;
20008;SDS011;10165;42.662;23.260;2024-01-15T12:43:05;26.40;;;11.83;;
20008;SDS011;10165;42.662;23.260;2024-01-15T12:45:34;19.63;;;11.90;;
20008;SDS011;10165;42.662;23.260;2024-01-15T12:48:02;17.50;;;10.20;;
20008;SDS011;10165;42.662;23.260;2024-01-15T12:50:30;21.23;;;11.77;;
20008;SDS011;10165;42.662;23.260;2024-01-15T12:52:59;23.20;;;11.67;;
20008;SDS011;10165;42.662;23.260;2024-01-15T12:55:26;26.33;;;13.60;;
20008;SDS011;10165;42.662;23.260;2024-01-15T12:57:52;27.70;;;12.17;;
20008;SDS011;10165;42.662;23.260;2024-01-15T13:00:21;22.63;;;11.67;;
20008;SDS011;10165;42.662;23.260;2024-01-15T13:02:48;27.63;;;13.63;;
20008;SDS011;10165;42.662;23.260;2024-01-15T13:05:16;36.20;;;15.50;;
20008;SDS011;10165;42.662;23.260;2024-01-15T13:07:43;28.03;;;16.17;;
20008;SDS011;10165;42.662;23.260;2024-01-15T13:10:10;24.87;;;12.43;;
20008;SDS011;10165;42.662;23.260;2024-01-15T13:12:38;23.03;;;12.23;;
20008;SDS011;10165;42.662;23.260;2024-01-15T13:15:05;26.20;;;11.27;;
20008;SDS011;10165;42.662;23.260;2024-01-15T13:17:39;34.10;;;13.83;;
20008;SDS011;10165;42.662;23.260;2024-01-15T13:20:06;25.53;;;14.23;;
20008;SDS011;10165;42.662;23.260;2024-01-15T13:22:35;23.60;;;12.13;;
20008;SDS011;10165;42.662;23.260;2024-01-15T13:25:02;25.80;;;13.63;;
20008;SDS011;10165;42.662;23.260;2024-01-15T13:27:30;21.93;;;12.10;;
20008;SDS011;10165;42.662;23.260;2024-01-15T13:29:57;27.00;;;12.47;;
20008;SDS011;10165;42.662;23.260;2024-01-15T13:32:27;20.40;;;11.87;;
20008;SDS011;10165;42.662;23.260;2024-01-15T13:34:55;17.13;;;10.23;;
20008;SDS011;10165;42.662;23.260;2024-01-15T13:37:23;24.40;;;12.93;;
20008;SDS011;10165;42.662;23.260;2024-01-15T13:39:54;23.40;;;11.67;;
20008;SDS011;10165;42.662;23.260;2024-01-15T13:42:21;25.20;;;11.67;;
20008;SDS011;10165;42.662;23.260;2024-01-15T13:44:53;18.67;;;10.73;;
20008;SDS011;10165;42.662;23.260;2024-01-15T13:47:20;27.63;;;11.37;;
20008;SDS011;10165;42.662;23.260;2024-01-15T13:49:47;26.10;;;11.57;;
20008;SDS011;10165;42.662;23.260;2024-01-15T13:52:14;22.70;;;13.87;;
20008;SDS011;10165;42.662;23.260;2024-01-15T13:54:41;22.47;;;11.70;;
20008;SDS011;10165;42.662;23.260;2024-01-15T13:57:18;23.97;;;12.13;;
20008;SDS011;10165;42.662;23.260;2024-01-15T13:59:46;30.43;;;14.00;;
20008;SDS011;10165;42.662;23.260;2024-01-15T14:02:15;31.40;;;14.23;;
20008;SDS011;10165;42.662;23.260;2024-01-15T14:04:47;37.83;;;16.07;;
20008;SDS011;10165;42.662;23.260;2024-01-15T14:07:15;33.10;;;13.40;;
20008;SDS011;10165;42.662;23.260;2024-01-15T14:09:42;61.20;;;29.33;;
20008;SDS011;10165;42.662;23.260;2024-01-15T14:12:09;38.70;;;20.77;;
20008;SDS011;10165;42.662;23.260;2024-01-15T14:14:36;51.67;;;25.50;;
20008;SDS011;10165;42.662;23.260;2024-01-15T14:17:02;31.47;;;16.13;;
20008;SDS011;10165;42.662;23.260;2024-01-15T14:19:30;33.00;;;15.30;;
20008;SDS011;10165;42.662;23.260;2024-01-15T14:21:57;28.37;;;14.47;;
20008;SDS011;10165;42.662;23.260;2024-01-15T14:24:24;34.40;;;14.80;;
20008;SDS011;10165;42.662;23.260;2024-01-15T14:26:50;26.87;;;13.03;;